PWSweather.com
Personal Weather Stations
Station Observations
PRATO
PratoIT 59100

PratoIT 59100

Lat: 43.8956799, Lon: 11.0845155

Elevation: 164

Station Type: Davis Vantage Vue

http://www.meteoprato.it

High Low Average
Temperature 58.1°F14.5°C 50.0°F10.0°C 53.6°F12.0°C
Dew Point 50.4°F10.2°C 45.0°F7.2°C 47.4°F8.6°C
Winds 17.4 mph 28.0 kmh Calm Calm 6.0 mph NE9.7 kmh NE
Wind Gusts 37.0 mph59.5 kmh -- 12.0 mph19.3 kmh
Humidity 93% 66% 80%
Pressure 29.71 in1006.1 mb 29.28 in991.5 mb -
Precipitation 0.55 in14.0 mm - -
Hour Temp Dew Point Humidity Winds Wind Gusts Pressure Precip Precip Rate Daily Precip Total
12:00 AM 52.8°F11.6°C 49.9°F9.9°C 90% Calm Calm -- 29.71 in1006.1 mb 0.01 in0.3 mm 0.00 in0.0 mm 0.01 in0.3 mm
12:05 AM 52.7°F11.5°C 50.1°F10.1°C 91% Calm Calm -- 29.71 in1006.1 mb 0.01 in0.3 mm 0.00 in0.0 mm 0.01 in0.3 mm
12:10 AM 52.7°F11.5°C 50.1°F10.1°C 91% Calm Calm -- 29.70 in1005.8 mb 0.01 in0.3 mm 0.00 in0.0 mm 0.01 in0.3 mm
12:15 AM 52.6°F11.4°C 50.0°F10.0°C 91% Calm Calm -- 29.70 in1005.8 mb 0.01 in0.3 mm 0.00 in0.0 mm 0.01 in0.3 mm
12:20 AM 52.6°F11.4°C 50.0°F10.0°C 91% Calm Calm -- 29.70 in1005.8 mb 0.01 in0.3 mm 0.00 in0.0 mm 0.01 in0.3 mm
12:25 AM 52.7°F11.5°C 50.1°F10.1°C 91% Calm Calm -- 29.70 in1005.8 mb 0.00 in0.0 mm 0.00 in0.0 mm 0.01 in0.3 mm
12:30 AM 52.7°F11.5°C 50.1°F10.1°C 91% Calm Calm -- 29.70 in1005.8 mb 0.00 in0.0 mm 0.00 in0.0 mm 0.01 in0.3 mm
12:35 AM 52.6°F11.4°C 50.0°F10.0°C 91% Calm Calm -- 29.70 in1005.8 mb 0.00 in0.0 mm 0.00 in0.0 mm 0.01 in0.3 mm
12:40 AM 52.6°F11.4°C 50.0°F10.0°C 91% Calm Calm -- 29.69 in1005.4 mb 0.00 in0.0 mm 0.00 in0.0 mm 0.01 in0.3 mm
12:45 AM 52.8°F11.6°C 50.2°F10.1°C 91% Calm Calm -- 29.69 in1005.4 mb 0.00 in0.0 mm 0.00 in0.0 mm 0.01 in0.3 mm
12:50 AM 52.6°F11.4°C 50.0°F10.0°C 91% Calm Calm -- 29.69 in1005.4 mb 0.00 in0.0 mm 0.00 in0.0 mm 0.01 in0.3 mm
12:55 AM 52.6°F11.4°C 50.0°F10.0°C 91% Calm Calm -- 29.69 in1005.4 mb 0.00 in0.0 mm 0.00 in0.0 mm 0.01 in0.3 mm
01:00 AM 52.5°F11.4°C 49.9°F9.9°C 91% Calm Calm -- 29.69 in1005.4 mb 0.00 in0.0 mm 0.00 in0.0 mm 0.01 in0.3 mm
01:05 AM 52.5°F11.4°C 49.9°F9.9°C 91% Calm Calm -- 29.69 in1005.4 mb 0.00 in0.0 mm 0.00 in0.0 mm 0.01 in0.3 mm
01:10 AM 52.4°F11.3°C 49.8°F9.9°C 91% Calm Calm -- 29.69 in1005.4 mb 0.00 in0.0 mm 0.00 in0.0 mm 0.01 in0.3 mm
01:15 AM 52.5°F11.4°C 49.9°F9.9°C 91% Calm Calm -- 29.68 in1005.1 mb 0.00 in0.0 mm 0.00 in0.0 mm 0.01 in0.3 mm
01:20 AM 52.6°F11.4°C 50.0°F10.0°C 91% Calm Calm -- 29.68 in1005.1 mb 0.00 in0.0 mm 0.00 in0.0 mm 0.01 in0.3 mm
01:25 AM 52.6°F11.4°C 50.0°F10.0°C 91% Calm Calm -- 29.68 in1005.1 mb 0.00 in0.0 mm 0.00 in0.0 mm 0.01 in0.3 mm
01:30 AM 52.5°F11.4°C 49.9°F9.9°C 91% Calm Calm -- 29.68 in1005.1 mb 0.01 in0.3 mm 0.12 in3.0 mm 0.01 in0.3 mm
01:35 AM 52.5°F11.4°C 50.2°F10.1°C 92% Calm Calm -- 29.68 in1005.1 mb 0.01 in0.3 mm 0.00 in0.0 mm 0.01 in0.3 mm
01:40 AM 52.5°F11.4°C 50.2°F10.1°C 92% Calm Calm -- 29.68 in1005.1 mb 0.01 in0.3 mm 0.00 in0.0 mm 0.01 in0.3 mm
01:45 AM 52.4°F11.3°C 50.1°F10.1°C 92% Calm Calm -- 29.68 in1005.1 mb 0.01 in0.3 mm 0.00 in0.0 mm 0.01 in0.3 mm
01:50 AM 52.3°F11.3°C 50.0°F10.0°C 92% Calm Calm -- 29.67 in1004.7 mb 0.01 in0.3 mm 0.00 in0.0 mm 0.01 in0.3 mm
01:55 AM 52.4°F11.3°C 50.4°F10.2°C 93% Calm Calm -- 29.67 in1004.7 mb 0.01 in0.3 mm 0.00 in0.0 mm 0.01 in0.3 mm
02:00 AM 52.3°F11.3°C 50.0°F10.0°C 92% Calm Calm -- 29.67 in1004.7 mb 0.01 in0.3 mm 0.00 in0.0 mm 0.01 in0.3 mm
02:05 AM 52.3°F11.3°C 50.3°F10.2°C 93% Calm Calm -- 29.67 in1004.7 mb 0.01 in0.3 mm 0.00 in0.0 mm 0.01 in0.3 mm
02:10 AM 52.2°F11.2°C 50.2°F10.1°C 93% Calm Calm -- 29.66 in1004.4 mb 0.01 in0.3 mm 0.00 in0.0 mm 0.01 in0.3 mm
02:15 AM 52.1°F11.2°C 50.1°F10.1°C 93% Calm Calm -- 29.66 in1004.4 mb 0.01 in0.3 mm 0.00 in0.0 mm 0.01 in0.3 mm
02:20 AM 52.1°F11.2°C 49.8°F9.9°C 92% Calm Calm -- 29.66 in1004.4 mb 0.01 in0.3 mm 0.00 in0.0 mm 0.01 in0.3 mm
02:25 AM 52.1°F11.2°C 49.8°F9.9°C 92% Calm Calm -- 29.65 in1004.1 mb 0.01 in0.3 mm 0.00 in0.0 mm 0.01 in0.3 mm
02:30 AM 52.0°F11.1°C 49.7°F9.8°C 92% Calm Calm -- 29.65 in1004.1 mb 0.00 in0.0 mm 0.00 in0.0 mm 0.01 in0.3 mm
02:35 AM 52.0°F11.1°C 49.7°F9.8°C 92% Calm Calm -- 29.65 in1004.1 mb 0.00 in0.0 mm 0.00 in0.0 mm 0.01 in0.3 mm
02:40 AM 52.0°F11.1°C 50.0°F10.0°C 93% Calm Calm -- 29.64 in1003.7 mb 0.00 in0.0 mm 0.00 in0.0 mm 0.01 in0.3 mm
02:45 AM 52.0°F11.1°C 49.7°F9.8°C 92% Calm Calm -- 29.64 in1003.7 mb 0.00 in0.0 mm 0.00 in0.0 mm 0.01 in0.3 mm
02:50 AM 52.0°F11.1°C 49.7°F9.8°C 92% Calm Calm -- 29.63 in1003.4 mb 0.00 in0.0 mm 0.00 in0.0 mm 0.01 in0.3 mm
02:55 AM 52.0°F11.1°C 49.7°F9.8°C 92% Calm Calm -- 29.63 in1003.4 mb 0.00 in0.0 mm 0.00 in0.0 mm 0.01 in0.3 mm
03:00 AM 52.1°F11.2°C 49.8°F9.9°C 92% Calm Calm -- 29.63 in1003.4 mb 0.00 in0.0 mm 0.00 in0.0 mm 0.01 in0.3 mm
03:05 AM 52.2°F11.2°C 49.9°F9.9°C 92% Calm Calm -- 29.62 in1003.0 mb 0.00 in0.0 mm 0.00 in0.0 mm 0.01 in0.3 mm
03:10 AM 52.2°F11.2°C 49.9°F9.9°C 92% Calm Calm -- 29.62 in1003.0 mb 0.00 in0.0 mm 0.00 in0.0 mm 0.01 in0.3 mm
03:15 AM 52.1°F11.2°C 49.8°F9.9°C 92% Calm Calm -- 29.61 in1002.7 mb 0.00 in0.0 mm 0.00 in0.0 mm 0.01 in0.3 mm
03:20 AM 52.1°F11.2°C 50.1°F10.1°C 93% Calm Calm -- 29.61 in1002.7 mb 0.00 in0.0 mm 0.00 in0.0 mm 0.01 in0.3 mm
03:25 AM 52.0°F11.1°C 50.0°F10.0°C 93% Calm Calm -- 29.61 in1002.7 mb 0.00 in0.0 mm 0.00 in0.0 mm 0.01 in0.3 mm
03:30 AM 51.9°F11.1°C 49.9°F9.9°C 93% Calm Calm -- 29.61 in1002.7 mb 0.00 in0.0 mm 0.00 in0.0 mm 0.01 in0.3 mm
03:35 AM 51.9°F11.1°C 49.9°F9.9°C 93% Calm Calm -- 29.61 in1002.7 mb 0.00 in0.0 mm 0.00 in0.0 mm 0.01 in0.3 mm
03:40 AM 51.9°F11.1°C 49.9°F9.9°C 93% Calm Calm -- 29.60 in1002.4 mb 0.00 in0.0 mm 0.00 in0.0 mm 0.01 in0.3 mm
03:45 AM 51.9°F11.1°C 49.9°F9.9°C 93% Calm Calm -- 29.60 in1002.4 mb 0.00 in0.0 mm 0.00 in0.0 mm 0.01 in0.3 mm
03:50 AM 51.9°F11.1°C 49.9°F9.9°C 93% Calm Calm -- 29.59 in1002.0 mb 0.00 in0.0 mm 0.00 in0.0 mm 0.01 in0.3 mm
03:55 AM 51.8°F11.0°C 49.8°F9.9°C 93% Calm Calm -- 29.60 in1002.4 mb 0.00 in0.0 mm 0.00 in0.0 mm 0.01 in0.3 mm
04:00 AM 51.8°F11.0°C 49.8°F9.9°C 93% Calm Calm -- 29.60 in1002.4 mb 0.00 in0.0 mm 0.00 in0.0 mm 0.01 in0.3 mm
04:05 AM 51.8°F11.0°C 49.8°F9.9°C 93% Calm Calm -- 29.59 in1002.0 mb 0.00 in0.0 mm 0.00 in0.0 mm 0.01 in0.3 mm
04:10 AM 51.8°F11.0°C 49.8°F9.9°C 93% Calm Calm -- 29.59 in1002.0 mb 0.00 in0.0 mm 0.00 in0.0 mm 0.01 in0.3 mm
04:15 AM 51.9°F11.1°C 49.9°F9.9°C 93% Calm Calm -- 29.59 in1002.0 mb 0.00 in0.0 mm 0.00 in0.0 mm 0.01 in0.3 mm
04:20 AM 52.1°F11.2°C 50.1°F10.1°C 93% 0.2 mph WSW0.3 kmh WSW 5.0 mph8.0 kmh 29.59 in1002.0 mb 0.00 in0.0 mm 0.00 in0.0 mm 0.01 in0.3 mm
04:25 AM 52.1°F11.2°C 50.1°F10.1°C 93% 0.7 mph WSW1.1 kmh WSW 5.0 mph8.0 kmh 29.59 in1002.0 mb 0.00 in0.0 mm 0.00 in0.0 mm 0.01 in0.3 mm
04:30 AM 52.0°F11.1°C 50.0°F10.0°C 93% 0.9 mph W1.4 kmh W 2.0 mph3.2 kmh 29.59 in1002.0 mb 0.00 in0.0 mm 0.00 in0.0 mm 0.01 in0.3 mm
04:35 AM 52.1°F11.2°C 49.8°F9.9°C 92% 0.4 mph NNE0.6 kmh NNE 2.0 mph3.2 kmh 29.58 in1001.7 mb 0.00 in0.0 mm 0.00 in0.0 mm 0.01 in0.3 mm
04:40 AM 52.4°F11.3°C 50.1°F10.1°C 92% Calm Calm 2.0 mph3.2 kmh 29.58 in1001.7 mb 0.00 in0.0 mm 0.00 in0.0 mm 0.01 in0.3 mm
04:45 AM 52.6°F11.4°C 50.0°F10.0°C 91% Calm Calm -- 29.58 in1001.7 mb 0.00 in0.0 mm 0.00 in0.0 mm 0.01 in0.3 mm
04:50 AM 52.4°F11.3°C 49.8°F9.9°C 91% Calm Calm -- 29.58 in1001.7 mb 0.00 in0.0 mm 0.00 in0.0 mm 0.01 in0.3 mm
04:55 AM 52.2°F11.2°C 49.7°F9.8°C 91% Calm Calm 4.0 mph6.4 kmh 29.57 in1001.4 mb 0.00 in0.0 mm 0.00 in0.0 mm 0.01 in0.3 mm
05:00 AM 52.1°F11.2°C 49.6°F9.8°C 91% Calm Calm 4.0 mph6.4 kmh 29.57 in1001.4 mb 0.00 in0.0 mm 0.00 in0.0 mm 0.01 in0.3 mm
05:05 AM 52.0°F11.1°C 49.5°F9.7°C 91% Calm Calm 4.0 mph6.4 kmh 29.57 in1001.4 mb 0.00 in0.0 mm 0.00 in0.0 mm 0.01 in0.3 mm
05:10 AM 51.8°F11.0°C 49.3°F9.6°C 91% 0.3 mph SW0.5 kmh SW 4.0 mph6.4 kmh 29.57 in1001.4 mb 0.00 in0.0 mm 0.00 in0.0 mm 0.01 in0.3 mm
05:15 AM 51.6°F10.9°C 49.1°F9.5°C 91% 0.8 mph SW1.3 kmh SW 3.0 mph4.8 kmh 29.57 in1001.4 mb 0.00 in0.0 mm 0.00 in0.0 mm 0.01 in0.3 mm
05:20 AM 51.6°F10.9°C 49.1°F9.5°C 91% 0.6 mph SW1.0 kmh SW 1.0 mph1.6 kmh 29.57 in1001.4 mb 0.00 in0.0 mm 0.00 in0.0 mm 0.01 in0.3 mm
05:25 AM 51.8°F11.0°C 49.0°F9.4°C 90% 0.1 mph 0.2 kmh -- 29.57 in1001.4 mb 0.00 in0.0 mm 0.00 in0.0 mm 0.01 in0.3 mm
05:30 AM 52.4°F11.3°C 49.3°F9.6°C 89% Calm Calm 5.0 mph8.0 kmh 29.57 in1001.4 mb 0.00 in0.0 mm 0.00 in0.0 mm 0.01 in0.3 mm
05:35 AM 52.9°F11.6°C 48.8°F9.3°C 86% Calm Calm 5.0 mph8.0 kmh 29.56 in1001.0 mb 0.00 in0.0 mm 0.00 in0.0 mm 0.01 in0.3 mm
05:40 AM 53.0°F11.7°C 48.6°F9.2°C 85% Calm Calm 2.0 mph3.2 kmh 29.56 in1001.0 mb 0.00 in0.0 mm 0.00 in0.0 mm 0.01 in0.3 mm
05:45 AM 52.9°F11.6°C 48.2°F9.0°C 84% Calm Calm -- 29.56 in1001.0 mb 0.00 in0.0 mm 0.00 in0.0 mm 0.01 in0.3 mm
05:50 AM 52.8°F11.6°C 48.1°F8.9°C 84% Calm Calm -- 29.55 in1000.7 mb 0.00 in0.0 mm 0.00 in0.0 mm 0.01 in0.3 mm
05:55 AM 52.8°F11.6°C 47.8°F8.8°C 83% Calm Calm 4.0 mph6.4 kmh 29.55 in1000.7 mb 0.00 in0.0 mm 0.00 in0.0 mm 0.01 in0.3 mm
06:00 AM 53.0°F11.7°C 47.7°F8.7°C 82% Calm Calm 4.0 mph6.4 kmh 29.55 in1000.7 mb 0.00 in0.0 mm 0.00 in0.0 mm 0.01 in0.3 mm
06:05 AM 53.1°F11.7°C 47.7°F8.7°C 82% Calm Calm 3.0 mph4.8 kmh 29.55 in1000.7 mb 0.00 in0.0 mm 0.00 in0.0 mm 0.01 in0.3 mm
06:10 AM 53.2°F11.8°C 47.5°F8.6°C 81% 0.4 mph NE0.6 kmh NE 5.0 mph8.0 kmh 29.55 in1000.7 mb 0.00 in0.0 mm 0.00 in0.0 mm 0.01 in0.3 mm
06:15 AM 53.4°F11.9°C 47.4°F8.6°C 80% 1.2 mph NE1.9 kmh NE 6.0 mph9.7 kmh 29.54 in1000.3 mb 0.00 in0.0 mm 0.00 in0.0 mm 0.01 in0.3 mm
06:20 AM 53.6°F12.0°C 47.2°F8.4°C 79% 1.9 mph NE3.1 kmh NE 6.0 mph9.7 kmh 29.54 in1000.3 mb 0.00 in0.0 mm 0.00 in0.0 mm 0.01 in0.3 mm
06:25 AM 53.8°F12.1°C 47.1°F8.4°C 78% 2.1 mph NE3.4 kmh NE 7.0 mph11.3 kmh 29.53 in1000.0 mb 0.00 in0.0 mm 0.00 in0.0 mm 0.01 in0.3 mm
06:30 AM 53.9°F12.2°C 47.2°F8.4°C 78% 2.0 mph NNE3.2 kmh NNE 7.0 mph11.3 kmh 29.53 in1000.0 mb 0.00 in0.0 mm 0.00 in0.0 mm 0.01 in0.3 mm
06:35 AM 53.9°F12.2°C 47.2°F8.4°C 78% 2.0 mph N3.2 kmh N 7.0 mph11.3 kmh 29.53 in1000.0 mb 0.00 in0.0 mm 0.00 in0.0 mm 0.01 in0.3 mm
06:40 AM 53.8°F12.1°C 47.1°F8.4°C 78% 2.0 mph NE3.2 kmh NE 5.0 mph8.0 kmh 29.52 in999.7 mb 0.00 in0.0 mm 0.00 in0.0 mm 0.01 in0.3 mm
06:45 AM 53.8°F12.1°C 47.1°F8.4°C 78% 1.5 mph NE2.4 kmh NE 3.0 mph4.8 kmh 29.52 in999.7 mb 0.00 in0.0 mm 0.00 in0.0 mm 0.01 in0.3 mm
06:50 AM 53.7°F12.1°C 47.0°F8.3°C 78% 0.5 mph NE0.8 kmh NE 4.0 mph6.4 kmh 29.51 in999.3 mb 0.00 in0.0 mm 0.00 in0.0 mm 0.01 in0.3 mm
06:55 AM 53.5°F11.9°C 46.8°F8.2°C 78% Calm Calm 4.0 mph6.4 kmh 29.51 in999.3 mb 0.00 in0.0 mm 0.00 in0.0 mm 0.01 in0.3 mm
07:00 AM 53.5°F11.9°C 47.1°F8.4°C 79% Calm Calm 3.0 mph4.8 kmh 29.50 in999.0 mb 0.00 in0.0 mm 0.00 in0.0 mm 0.01 in0.3 mm
07:05 AM 53.4°F11.9°C 47.0°F8.3°C 79% Calm Calm 6.0 mph9.7 kmh 29.50 in999.0 mb 0.00 in0.0 mm 0.00 in0.0 mm 0.01 in0.3 mm
07:10 AM 53.7°F12.1°C 46.7°F8.2°C 77% 0.8 mph NE1.3 kmh NE 11.0 mph17.7 kmh 29.50 in999.0 mb 0.00 in0.0 mm 0.00 in0.0 mm 0.01 in0.3 mm
07:15 AM 54.1°F12.3°C 46.7°F8.2°C 76% 1.9 mph NE3.1 kmh NE 11.0 mph17.7 kmh 29.50 in999.0 mb 0.00 in0.0 mm 0.00 in0.0 mm 0.01 in0.3 mm
07:20 AM 54.6°F12.6°C 46.5°F8.1°C 74% 2.4 mph NE3.9 kmh NE 15.0 mph24.1 kmh 29.50 in999.0 mb 0.00 in0.0 mm 0.00 in0.0 mm 0.01 in0.3 mm
07:25 AM 55.0°F12.8°C 46.5°F8.1°C 73% 4.6 mph NE7.4 kmh NE 17.0 mph27.4 kmh 29.50 in999.0 mb 0.00 in0.0 mm 0.00 in0.0 mm 0.01 in0.3 mm
07:30 AM 55.0°F12.8°C 46.5°F8.1°C 73% 8.3 mph NE13.4 kmh NE 17.0 mph27.4 kmh 29.50 in999.0 mb 0.00 in0.0 mm 0.00 in0.0 mm 0.01 in0.3 mm
07:35 AM 54.8°F12.7°C 46.3°F7.9°C 73% 10.2 mph NE16.4 kmh NE 21.0 mph33.8 kmh 29.50 in999.0 mb 0.00 in0.0 mm 0.00 in0.0 mm 0.01 in0.3 mm
07:40 AM 54.8°F12.7°C 46.3°F7.9°C 73% 10.7 mph NE17.2 kmh NE 24.0 mph38.6 kmh 29.50 in999.0 mb 0.00 in0.0 mm 0.00 in0.0 mm 0.01 in0.3 mm
07:45 AM 54.5°F12.5°C 46.4°F8.0°C 74% 11.8 mph NE19.0 kmh NE 24.0 mph38.6 kmh 29.50 in999.0 mb 0.00 in0.0 mm 0.00 in0.0 mm 0.01 in0.3 mm
07:50 AM 54.4°F12.4°C 46.3°F7.9°C 74% 12.4 mph NE20.0 kmh NE 24.0 mph38.6 kmh 29.49 in998.6 mb 0.00 in0.0 mm 0.00 in0.0 mm 0.01 in0.3 mm
07:55 AM 54.5°F12.5°C 46.4°F8.0°C 74% 12.1 mph NE19.5 kmh NE 24.0 mph38.6 kmh 29.49 in998.6 mb 0.00 in0.0 mm 0.00 in0.0 mm 0.01 in0.3 mm
08:00 AM 54.8°F12.7°C 46.3°F7.9°C 73% 11.5 mph NE18.5 kmh NE 20.0 mph32.2 kmh 29.50 in999.0 mb 0.00 in0.0 mm 0.00 in0.0 mm 0.01 in0.3 mm
08:05 AM 55.0°F12.8°C 46.5°F8.1°C 73% 9.8 mph NE15.8 kmh NE 17.0 mph27.4 kmh 29.50 in999.0 mb 0.00 in0.0 mm 0.00 in0.0 mm 0.01 in0.3 mm
08:10 AM 55.1°F12.8°C 46.2°F7.9°C 72% 8.5 mph NE13.7 kmh NE 19.0 mph30.6 kmh 29.50 in999.0 mb 0.00 in0.0 mm 0.00 in0.0 mm 0.01 in0.3 mm
08:15 AM 55.0°F12.8°C 46.1°F7.8°C 72% 8.7 mph NE14.0 kmh NE 19.0 mph30.6 kmh 29.50 in999.0 mb 0.00 in0.0 mm 0.00 in0.0 mm 0.01 in0.3 mm
08:20 AM 55.1°F12.8°C 46.2°F7.9°C 72% 9.1 mph NE14.6 kmh NE 17.0 mph27.4 kmh 29.50 in999.0 mb 0.00 in0.0 mm 0.00 in0.0 mm 0.01 in0.3 mm
08:25 AM 55.2°F12.9°C 46.3°F7.9°C 72% 9.3 mph NE15.0 kmh NE 21.0 mph33.8 kmh 29.50 in999.0 mb 0.00 in0.0 mm 0.00 in0.0 mm 0.01 in0.3 mm
08:30 AM 55.2°F12.9°C 46.3°F7.9°C 72% 9.4 mph NE15.1 kmh NE 21.0 mph33.8 kmh 29.50 in999.0 mb 0.00 in0.0 mm 0.00 in0.0 mm 0.01 in0.3 mm
08:35 AM 55.3°F12.9°C 46.4°F8.0°C 72% 9.1 mph NE14.6 kmh NE 20.0 mph32.2 kmh 29.50 in999.0 mb 0.00 in0.0 mm 0.00 in0.0 mm 0.01 in0.3 mm
08:40 AM 55.4°F13.0°C 46.5°F8.1°C 72% 8.5 mph NE13.7 kmh NE 20.0 mph32.2 kmh 29.50 in999.0 mb 0.00 in0.0 mm 0.00 in0.0 mm 0.01 in0.3 mm
08:45 AM 55.5°F13.1°C 46.6°F8.1°C 72% 8.6 mph NE13.8 kmh NE 18.0 mph29.0 kmh 29.50 in999.0 mb 0.00 in0.0 mm 0.00 in0.0 mm 0.01 in0.3 mm
08:50 AM 55.6°F13.1°C 46.3°F7.9°C 71% 8.7 mph NE14.0 kmh NE 20.0 mph32.2 kmh 29.50 in999.0 mb 0.00 in0.0 mm 0.00 in0.0 mm 0.01 in0.3 mm
08:55 AM 55.6°F13.1°C 46.7°F8.2°C 72% 8.7 mph NE14.0 kmh NE 20.0 mph32.2 kmh 29.50 in999.0 mb 0.00 in0.0 mm 0.00 in0.0 mm 0.01 in0.3 mm
09:00 AM 55.7°F13.2°C 46.8°F8.2°C 72% 8.8 mph NE14.2 kmh NE 17.0 mph27.4 kmh 29.50 in999.0 mb 0.00 in0.0 mm 0.00 in0.0 mm 0.01 in0.3 mm
09:05 AM 55.6°F13.1°C 46.7°F8.2°C 72% 8.0 mph NE12.9 kmh NE 16.0 mph25.7 kmh 29.50 in999.0 mb 0.00 in0.0 mm 0.00 in0.0 mm 0.01 in0.3 mm
09:10 AM 55.6°F13.1°C 46.7°F8.2°C 72% 7.6 mph NE12.2 kmh NE 15.0 mph24.1 kmh 29.50 in999.0 mb 0.00 in0.0 mm 0.00 in0.0 mm 0.01 in0.3 mm
09:15 AM 55.5°F13.1°C 46.6°F8.1°C 72% 7.6 mph NE12.2 kmh NE 15.0 mph24.1 kmh 29.49 in998.6 mb 0.00 in0.0 mm 0.00 in0.0 mm 0.01 in0.3 mm
09:20 AM 55.5°F13.1°C 47.0°F8.3°C 73% 7.4 mph NE11.9 kmh NE 15.0 mph24.1 kmh 29.49 in998.6 mb 0.00 in0.0 mm 0.00 in0.0 mm 0.01 in0.3 mm
09:25 AM 55.4°F13.0°C 46.9°F8.3°C 73% 7.2 mph NE11.6 kmh NE 18.0 mph29.0 kmh 29.49 in998.6 mb 0.00 in0.0 mm 0.00 in0.0 mm 0.01 in0.3 mm
09:30 AM 55.4°F13.0°C 46.9°F8.3°C 73% 7.4 mph NE11.9 kmh NE 18.0 mph29.0 kmh 29.48 in998.3 mb 0.00 in0.0 mm 0.00 in0.0 mm 0.01 in0.3 mm
09:35 AM 55.4°F13.0°C 46.9°F8.3°C 73% 7.6 mph NE12.2 kmh NE 13.0 mph20.9 kmh 29.48 in998.3 mb 0.00 in0.0 mm 0.00 in0.0 mm 0.01 in0.3 mm
09:40 AM 55.5°F13.1°C 47.0°F8.3°C 73% 6.5 mph NE10.5 kmh NE 18.0 mph29.0 kmh 29.48 in998.3 mb 0.00 in0.0 mm 0.00 in0.0 mm 0.01 in0.3 mm
09:45 AM 55.6°F13.1°C 47.1°F8.4°C 73% 5.8 mph NE9.3 kmh NE 18.0 mph29.0 kmh 29.48 in998.3 mb 0.00 in0.0 mm 0.00 in0.0 mm 0.01 in0.3 mm
09:50 AM 55.5°F13.1°C 47.0°F8.3°C 73% 6.1 mph NE9.8 kmh NE 15.0 mph24.1 kmh 29.48 in998.3 mb 0.00 in0.0 mm 0.00 in0.0 mm 0.01 in0.3 mm
09:55 AM 55.6°F13.1°C 46.7°F8.2°C 72% 6.2 mph NE10.0 kmh NE 15.0 mph24.1 kmh 29.48 in998.3 mb 0.00 in0.0 mm 0.00 in0.0 mm 0.01 in0.3 mm
10:00 AM 55.8°F13.2°C 46.9°F8.3°C 72% 6.9 mph NE11.1 kmh NE 15.0 mph24.1 kmh 29.47 in998.0 mb 0.00 in0.0 mm 0.00 in0.0 mm 0.01 in0.3 mm
10:05 AM 56.0°F13.3°C 47.1°F8.4°C 72% 7.7 mph NE12.4 kmh NE 15.0 mph24.1 kmh 29.47 in998.0 mb 0.00 in0.0 mm 0.00 in0.0 mm 0.01 in0.3 mm
10:10 AM 56.2°F13.4°C 46.9°F8.3°C 71% 7.1 mph NE11.4 kmh NE 14.0 mph22.5 kmh 29.47 in998.0 mb 0.00 in0.0 mm 0.00 in0.0 mm 0.01 in0.3 mm
10:15 AM 56.3°F13.5°C 47.0°F8.3°C 71% 5.9 mph NE9.5 kmh NE 16.0 mph25.7 kmh 29.46 in997.6 mb 0.00 in0.0 mm 0.00 in0.0 mm 0.01 in0.3 mm
10:20 AM 56.4°F13.6°C 47.1°F8.4°C 71% 5.7 mph NE9.2 kmh NE 16.0 mph25.7 kmh 29.46 in997.6 mb 0.00 in0.0 mm 0.00 in0.0 mm 0.01 in0.3 mm
10:25 AM 56.6°F13.7°C 46.9°F8.3°C 70% 6.2 mph NE10.0 kmh NE 13.0 mph20.9 kmh 29.46 in997.6 mb 0.00 in0.0 mm 0.00 in0.0 mm 0.01 in0.3 mm
10:30 AM 56.8°F13.8°C 47.1°F8.4°C 70% 6.4 mph NE10.3 kmh NE 16.0 mph25.7 kmh 29.47 in998.0 mb 0.00 in0.0 mm 0.00 in0.0 mm 0.01 in0.3 mm
10:35 AM 57.0°F13.9°C 46.9°F8.3°C 69% 6.2 mph NE10.0 kmh NE 16.0 mph25.7 kmh 29.48 in998.3 mb 0.00 in0.0 mm 0.00 in0.0 mm 0.01 in0.3 mm
10:40 AM 57.1°F13.9°C 47.0°F8.3°C 69% 6.0 mph NE9.7 kmh NE 18.0 mph29.0 kmh 29.47 in998.0 mb 0.00 in0.0 mm 0.00 in0.0 mm 0.01 in0.3 mm
10:45 AM 57.2°F14.0°C 47.1°F8.4°C 69% 6.0 mph NE9.7 kmh NE 18.0 mph29.0 kmh 29.47 in998.0 mb 0.00 in0.0 mm 0.00 in0.0 mm 0.01 in0.3 mm
10:50 AM 57.2°F14.0°C 46.7°F8.2°C 68% 6.0 mph NE9.7 kmh NE 15.0 mph24.1 kmh 29.47 in998.0 mb 0.00 in0.0 mm 0.00 in0.0 mm 0.01 in0.3 mm
10:55 AM 57.2°F14.0°C 46.7°F8.2°C 68% 6.5 mph NE10.5 kmh NE 15.0 mph24.1 kmh 29.47 in998.0 mb 0.00 in0.0 mm 0.00 in0.0 mm 0.01 in0.3 mm
11:00 AM 57.2°F14.0°C 46.7°F8.2°C 68% 7.8 mph NE12.6 kmh NE 19.0 mph30.6 kmh 29.47 in998.0 mb 0.00 in0.0 mm 0.00 in0.0 mm 0.01 in0.3 mm
11:05 AM 57.2°F14.0°C 46.7°F8.2°C 68% 9.1 mph NE14.6 kmh NE 19.0 mph30.6 kmh 29.46 in997.6 mb 0.00 in0.0 mm 0.00 in0.0 mm 0.01 in0.3 mm
11:10 AM 57.1°F13.9°C 46.6°F8.1°C 68% 9.4 mph NE15.1 kmh NE 21.0 mph33.8 kmh 29.45 in997.3 mb 0.00 in0.0 mm 0.00 in0.0 mm 0.01 in0.3 mm
11:15 AM 57.1°F13.9°C 46.6°F8.1°C 68% 9.7 mph NE15.6 kmh NE 21.0 mph33.8 kmh 29.45 in997.3 mb 0.00 in0.0 mm 0.00 in0.0 mm 0.01 in0.3 mm
11:20 AM 57.3°F14.1°C 46.8°F8.2°C 68% 11.0 mph NE17.7 kmh NE 21.0 mph33.8 kmh 29.45 in997.3 mb 0.00 in0.0 mm 0.00 in0.0 mm 0.01 in0.3 mm
11:25 AM 57.4°F14.1°C 46.9°F8.3°C 68% 12.1 mph NE19.5 kmh NE 22.0 mph35.4 kmh 29.44 in997.0 mb 0.00 in0.0 mm 0.00 in0.0 mm 0.01 in0.3 mm
11:30 AM 57.5°F14.2°C 47.0°F8.3°C 68% 13.0 mph NE20.9 kmh NE 22.0 mph35.4 kmh 29.44 in997.0 mb 0.00 in0.0 mm 0.00 in0.0 mm 0.01 in0.3 mm
11:35 AM 57.5°F14.2°C 47.0°F8.3°C 68% 13.3 mph NE21.4 kmh NE 21.0 mph33.8 kmh 29.44 in997.0 mb 0.00 in0.0 mm 0.00 in0.0 mm 0.01 in0.3 mm
11:40 AM 57.6°F14.2°C 46.7°F8.2°C 67% 12.8 mph NE20.6 kmh NE 22.0 mph35.4 kmh 29.43 in996.6 mb 0.00 in0.0 mm 0.00 in0.0 mm 0.01 in0.3 mm
11:45 AM 57.6°F14.2°C 47.1°F8.4°C 68% 12.8 mph NE20.6 kmh NE 22.0 mph35.4 kmh 29.43 in996.6 mb 0.00 in0.0 mm 0.00 in0.0 mm 0.01 in0.3 mm
11:50 AM 57.8°F14.3°C 46.9°F8.3°C 67% 13.0 mph NE20.9 kmh NE 24.0 mph38.6 kmh 29.43 in996.6 mb 0.00 in0.0 mm 0.00 in0.0 mm 0.01 in0.3 mm
11:55 AM 58.0°F14.4°C 46.7°F8.2°C 66% 12.5 mph NE20.1 kmh NE 24.0 mph38.6 kmh 29.43 in996.6 mb 0.00 in0.0 mm 0.00 in0.0 mm 0.01 in0.3 mm
12:00 PM 57.9°F14.4°C 47.0°F8.3°C 67% 12.5 mph NE20.1 kmh NE 23.0 mph37.0 kmh 29.43 in996.6 mb 0.00 in0.0 mm 0.00 in0.0 mm 0.01 in0.3 mm
12:05 PM 57.9°F14.4°C 47.0°F8.3°C 67% 13.3 mph NE21.4 kmh NE 25.0 mph40.2 kmh 29.42 in996.3 mb 0.00 in0.0 mm 0.00 in0.0 mm 0.01 in0.3 mm
12:10 PM 57.9°F14.4°C 47.0°F8.3°C 67% 13.1 mph NE21.1 kmh NE 25.0 mph40.2 kmh 29.41 in995.9 mb 0.00 in0.0 mm 0.00 in0.0 mm 0.01 in0.3 mm
12:15 PM 57.9°F14.4°C 47.0°F8.3°C 67% 12.6 mph NE20.3 kmh NE 25.0 mph40.2 kmh 29.40 in995.6 mb 0.00 in0.0 mm 0.00 in0.0 mm 0.01 in0.3 mm
12:20 PM 57.8°F14.3°C 46.9°F8.3°C 67% 13.1 mph NE21.1 kmh NE 25.0 mph40.2 kmh 29.40 in995.6 mb 0.00 in0.0 mm 0.00 in0.0 mm 0.01 in0.3 mm
12:25 PM 57.8°F14.3°C 46.9°F8.3°C 67% 14.1 mph NE22.7 kmh NE 22.0 mph35.4 kmh 29.40 in995.6 mb 0.00 in0.0 mm 0.00 in0.0 mm 0.01 in0.3 mm
12:30 PM 57.8°F14.3°C 46.9°F8.3°C 67% 14.2 mph NE22.9 kmh NE 22.0 mph35.4 kmh 29.39 in995.3 mb 0.00 in0.0 mm 0.00 in0.0 mm 0.01 in0.3 mm
12:35 PM 57.9°F14.4°C 47.0°F8.3°C 67% 13.3 mph NE21.4 kmh NE 21.0 mph33.8 kmh 29.39 in995.3 mb 0.00 in0.0 mm 0.00 in0.0 mm 0.01 in0.3 mm
12:40 PM 58.0°F14.4°C 46.7°F8.2°C 66% 12.4 mph NE20.0 kmh NE 26.0 mph41.8 kmh 29.38 in994.9 mb 0.00 in0.0 mm 0.00 in0.0 mm 0.01 in0.3 mm
12:45 PM 58.1°F14.5°C 46.8°F8.2°C 66% 12.5 mph NE20.1 kmh NE 26.0 mph41.8 kmh 29.37 in994.6 mb 0.00 in0.0 mm 0.00 in0.0 mm 0.01 in0.3 mm
12:50 PM 58.0°F14.4°C 46.7°F8.2°C 66% 13.1 mph NE21.1 kmh NE 26.0 mph41.8 kmh 29.37 in994.6 mb 0.00 in0.0 mm 0.00 in0.0 mm 0.01 in0.3 mm
12:55 PM 58.0°F14.4°C 46.7°F8.2°C 66% 13.6 mph NE21.9 kmh NE 26.0 mph41.8 kmh 29.37 in994.6 mb 0.00 in0.0 mm 0.00 in0.0 mm 0.01 in0.3 mm
01:00 PM 58.0°F14.4°C 46.7°F8.2°C 66% 14.3 mph NE23.0 kmh NE 26.0 mph41.8 kmh 29.37 in994.6 mb 0.00 in0.0 mm 0.00 in0.0 mm 0.01 in0.3 mm
01:05 PM 58.0°F14.4°C 46.7°F8.2°C 66% 14.3 mph NE23.0 kmh NE 25.0 mph40.2 kmh 29.36 in994.2 mb 0.00 in0.0 mm 0.00 in0.0 mm 0.01 in0.3 mm
01:10 PM 58.0°F14.4°C 46.7°F8.2°C 66% 14.4 mph NE23.2 kmh NE 24.0 mph38.6 kmh 29.36 in994.2 mb 0.00 in0.0 mm 0.00 in0.0 mm 0.01 in0.3 mm
01:15 PM 57.9°F14.4°C 46.6°F8.1°C 66% 14.9 mph NE24.0 kmh NE 26.0 mph41.8 kmh 29.36 in994.2 mb 0.00 in0.0 mm 0.00 in0.0 mm 0.01 in0.3 mm
01:20 PM 57.9°F14.4°C 46.6°F8.1°C 66% 14.8 mph NE23.8 kmh NE 26.0 mph41.8 kmh 29.36 in994.2 mb 0.00 in0.0 mm 0.00 in0.0 mm 0.01 in0.3 mm
01:25 PM 57.8°F14.3°C 46.5°F8.1°C 66% 13.7 mph NE22.0 kmh NE 23.0 mph37.0 kmh 29.36 in994.2 mb 0.00 in0.0 mm 0.00 in0.0 mm 0.01 in0.3 mm
01:30 PM 57.7°F14.3°C 46.4°F8.0°C 66% 12.2 mph NE19.6 kmh NE 23.0 mph37.0 kmh 29.35 in993.9 mb 0.00 in0.0 mm 0.00 in0.0 mm 0.01 in0.3 mm
01:35 PM 57.6°F14.2°C 46.3°F7.9°C 66% 11.9 mph NE19.2 kmh NE 26.0 mph41.8 kmh 29.36 in994.2 mb 0.00 in0.0 mm 0.00 in0.0 mm 0.01 in0.3 mm
01:40 PM 57.4°F14.1°C 46.1°F7.8°C 66% 12.6 mph NE20.3 kmh NE 28.0 mph45.1 kmh 29.36 in994.2 mb 0.00 in0.0 mm 0.00 in0.0 mm 0.01 in0.3 mm
01:45 PM 57.3°F14.1°C 46.4°F8.0°C 67% 13.8 mph NE22.2 kmh NE 28.0 mph45.1 kmh 29.36 in994.2 mb 0.00 in0.0 mm 0.00 in0.0 mm 0.01 in0.3 mm
01:50 PM 57.2°F14.0°C 45.9°F7.7°C 66% 14.5 mph NE23.3 kmh NE 24.0 mph38.6 kmh 29.36 in994.2 mb 0.00 in0.0 mm 0.00 in0.0 mm 0.01 in0.3 mm
01:55 PM 57.1°F13.9°C 46.2°F7.9°C 67% 14.2 mph NE22.9 kmh NE 24.0 mph38.6 kmh 29.35 in993.9 mb 0.00 in0.0 mm 0.00 in0.0 mm 0.01 in0.3 mm
02:00 PM 57.0°F13.9°C 45.7°F7.6°C 66% 14.0 mph NE22.5 kmh NE 28.0 mph45.1 kmh 29.35 in993.9 mb 0.00 in0.0 mm 0.00 in0.0 mm 0.01 in0.3 mm
02:05 PM 57.0°F13.9°C 45.7°F7.6°C 66% 14.3 mph NE23.0 kmh NE 28.0 mph45.1 kmh 29.35 in993.9 mb 0.00 in0.0 mm 0.00 in0.0 mm 0.01 in0.3 mm
02:10 PM 56.9°F13.8°C 45.7°F7.6°C 66% 14.8 mph NE23.8 kmh NE 28.0 mph45.1 kmh 29.35 in993.9 mb 0.00 in0.0 mm 0.00 in0.0 mm 0.01 in0.3 mm
02:15 PM 56.9°F13.8°C 45.7°F7.6°C 66% 14.8 mph NE23.8 kmh NE 26.0 mph41.8 kmh 29.35 in993.9 mb 0.00 in0.0 mm 0.00 in0.0 mm 0.01 in0.3 mm
02:20 PM 56.8°F13.8°C 46.0°F7.8°C 67% 14.7 mph NE23.7 kmh NE 25.0 mph40.2 kmh 29.34 in993.6 mb 0.00 in0.0 mm 0.00 in0.0 mm 0.01 in0.3 mm
02:25 PM 56.7°F13.7°C 45.9°F7.7°C 67% 14.7 mph NE23.7 kmh NE 24.0 mph38.6 kmh 29.34 in993.6 mb 0.00 in0.0 mm 0.00 in0.0 mm 0.01 in0.3 mm
02:30 PM 56.7°F13.7°C 45.9°F7.7°C 67% 14.1 mph NE22.7 kmh NE 24.0 mph38.6 kmh 29.34 in993.6 mb 0.00 in0.0 mm 0.00 in0.0 mm 0.01 in0.3 mm
02:35 PM 56.6°F13.7°C 45.8°F7.7°C 67% 13.5 mph NE21.7 kmh NE 25.0 mph40.2 kmh 29.33 in993.2 mb 0.00 in0.0 mm 0.00 in0.0 mm 0.01 in0.3 mm
02:40 PM 56.6°F13.7°C 45.8°F7.7°C 67% 13.7 mph NE22.0 kmh NE 25.0 mph40.2 kmh 29.33 in993.2 mb 0.00 in0.0 mm 0.00 in0.0 mm 0.01 in0.3 mm
02:45 PM 56.6°F13.7°C 45.8°F7.7°C 67% 14.2 mph NE22.9 kmh NE 24.0 mph38.6 kmh 29.32 in992.9 mb 0.00 in0.0 mm 0.00 in0.0 mm 0.01 in0.3 mm
02:50 PM 56.6°F13.7°C 45.8°F7.7°C 67% 14.2 mph NE22.9 kmh NE 22.0 mph35.4 kmh 29.32 in992.9 mb 0.00 in0.0 mm 0.00 in0.0 mm 0.01 in0.3 mm
02:55 PM 56.5°F13.6°C 45.7°F7.6°C 67% 13.9 mph NE22.4 kmh NE 25.0 mph40.2 kmh 29.32 in992.9 mb 0.00 in0.0 mm 0.00 in0.0 mm 0.01 in0.3 mm
03:00 PM 56.5°F13.6°C 45.7°F7.6°C 67% 13.6 mph NE21.9 kmh NE 25.0 mph40.2 kmh 29.32 in992.9 mb 0.00 in0.0 mm 0.00 in0.0 mm 0.01 in0.3 mm
03:05 PM 56.5°F13.6°C 45.7°F7.6°C 67% 13.5 mph NE21.7 kmh NE 24.0 mph38.6 kmh 29.32 in992.9 mb 0.00 in0.0 mm 0.00 in0.0 mm 0.01 in0.3 mm
03:10 PM 56.5°F13.6°C 45.7°F7.6°C 67% 13.8 mph NE22.2 kmh NE 25.0 mph40.2 kmh 29.32 in992.9 mb 0.00 in0.0 mm 0.00 in0.0 mm 0.01 in0.3 mm
03:15 PM 56.5°F13.6°C 45.7°F7.6°C 67% 13.7 mph NE22.0 kmh NE 25.0 mph40.2 kmh 29.31 in992.6 mb 0.00 in0.0 mm 0.00 in0.0 mm 0.01 in0.3 mm
03:20 PM 56.5°F13.6°C 45.7°F7.6°C 67% 13.1 mph NE21.1 kmh NE 20.0 mph32.2 kmh 29.30 in992.2 mb 0.00 in0.0 mm 0.00 in0.0 mm 0.01 in0.3 mm
03:25 PM 56.4°F13.6°C 45.6°F7.6°C 67% 12.3 mph NE19.8 kmh NE 27.0 mph43.5 kmh 29.31 in992.6 mb 0.00 in0.0 mm 0.00 in0.0 mm 0.01 in0.3 mm
03:30 PM 56.4°F13.6°C 45.6°F7.6°C 67% 11.7 mph NE18.8 kmh NE 27.0 mph43.5 kmh 29.30 in992.2 mb 0.00 in0.0 mm 0.00 in0.0 mm 0.01 in0.3 mm
03:35 PM 56.3°F13.5°C 45.5°F7.5°C 67% 11.8 mph NE19.0 kmh NE 27.0 mph43.5 kmh 29.30 in992.2 mb 0.00 in0.0 mm 0.00 in0.0 mm 0.01 in0.3 mm
03:40 PM 56.2°F13.4°C 45.4°F7.4°C 67% 12.5 mph NE20.1 kmh NE 25.0 mph40.2 kmh 29.30 in992.2 mb 0.00 in0.0 mm 0.00 in0.0 mm 0.01 in0.3 mm
03:45 PM 56.2°F13.4°C 45.0°F7.2°C 66% 14.1 mph NE22.7 kmh NE 37.0 mph59.5 kmh 29.30 in992.2 mb 0.00 in0.0 mm 0.00 in0.0 mm 0.01 in0.3 mm
03:50 PM 56.1°F13.4°C 45.3°F7.4°C 67% 15.9 mph NE25.6 kmh NE 37.0 mph59.5 kmh 29.30 in992.2 mb 0.00 in0.0 mm 0.00 in0.0 mm 0.01 in0.3 mm
03:55 PM 56.1°F13.4°C 45.3°F7.4°C 67% 15.5 mph NE24.9 kmh NE 31.0 mph49.9 kmh 29.29 in991.9 mb 0.00 in0.0 mm 0.00 in0.0 mm 0.01 in0.3 mm
04:00 PM 56.0°F13.3°C 45.2°F7.3°C 67% 13.9 mph NE22.4 kmh NE 31.0 mph49.9 kmh 29.30 in992.2 mb 0.00 in0.0 mm 0.00 in0.0 mm 0.01 in0.3 mm
04:05 PM 55.8°F13.2°C 45.4°F7.4°C 68% 14.3 mph NE23.0 kmh NE 27.0 mph43.5 kmh 29.29 in991.9 mb 0.00 in0.0 mm 0.00 in0.0 mm 0.01 in0.3 mm
04:10 PM 55.5°F13.1°C 45.5°F7.5°C 69% 15.4 mph NE24.8 kmh NE 27.0 mph43.5 kmh 29.28 in991.5 mb 0.00 in0.0 mm 0.00 in0.0 mm 0.01 in0.3 mm
04:15 PM 55.5°F13.1°C 45.1°F7.3°C 68% 15.9 mph NE25.6 kmh NE 28.0 mph45.1 kmh 29.28 in991.5 mb 0.00 in0.0 mm 0.00 in0.0 mm 0.01 in0.3 mm
04:20 PM 55.4°F13.0°C 45.4°F7.4°C 69% 16.7 mph NE26.9 kmh NE 35.0 mph56.3 kmh 29.28 in991.5 mb 0.00 in0.0 mm 0.00 in0.0 mm 0.01 in0.3 mm
04:25 PM 55.0°F12.8°C 45.4°F7.4°C 70% 17.4 mph NE28.0 kmh NE 36.0 mph57.9 kmh 29.29 in991.9 mb 0.00 in0.0 mm 0.00 in0.0 mm 0.01 in0.3 mm
04:30 PM 54.3°F12.4°C 45.8°F7.7°C 73% 17.2 mph NE27.7 kmh NE 36.0 mph57.9 kmh 29.30 in992.2 mb 0.00 in0.0 mm 0.00 in0.0 mm 0.01 in0.3 mm
04:35 PM 53.7°F12.1°C 46.0°F7.8°C 75% 15.9 mph NE25.6 kmh NE 27.0 mph43.5 kmh 29.30 in992.2 mb 0.00 in0.0 mm 0.00 in0.0 mm 0.01 in0.3 mm
04:40 PM 53.6°F12.0°C 46.2°F7.9°C 76% 14.5 mph NE23.3 kmh NE 26.0 mph41.8 kmh 29.31 in992.6 mb 0.01 in0.3 mm 0.12 in3.0 mm 0.02 in0.5 mm
04:45 PM 53.6°F12.0°C 45.9°F7.7°C 75% 13.4 mph NE21.6 kmh NE 24.0 mph38.6 kmh 29.33 in993.2 mb 0.01 in0.3 mm 0.00 in0.0 mm 0.02 in0.5 mm
04:50 PM 53.6°F12.0°C 45.9°F7.7°C 75% 11.9 mph NE19.2 kmh NE 19.0 mph30.6 kmh 29.33 in993.2 mb 0.01 in0.3 mm 0.00 in0.0 mm 0.02 in0.5 mm
04:55 PM 53.6°F12.0°C 45.9°F7.7°C 75% 10.5 mph NE16.9 kmh NE 19.0 mph30.6 kmh 29.34 in993.6 mb 0.01 in0.3 mm 0.00 in0.0 mm 0.02 in0.5 mm
05:00 PM 53.5°F11.9°C 46.1°F7.8°C 76% 9.8 mph NE15.8 kmh NE 19.0 mph30.6 kmh 29.34 in993.6 mb 0.01 in0.3 mm 0.00 in0.0 mm 0.02 in0.5 mm
05:05 PM 53.2°F11.8°C 46.2°F7.9°C 77% 8.6 mph NE13.8 kmh NE 19.0 mph30.6 kmh 29.34 in993.6 mb 0.02 in0.5 mm 0.12 in3.0 mm 0.02 in0.5 mm
05:10 PM 53.2°F11.8°C 46.2°F7.9°C 77% 6.8 mph NE10.9 kmh NE 13.0 mph20.9 kmh 29.34 in993.6 mb 0.02 in0.5 mm 0.00 in0.0 mm 0.02 in0.5 mm
05:15 PM 53.2°F11.8°C 46.5°F8.1°C 78% 5.5 mph NE8.9 kmh NE 12.0 mph19.3 kmh 29.34 in993.6 mb 0.02 in0.5 mm 0.00 in0.0 mm 0.03 in0.8 mm
05:20 PM 53.2°F11.8°C 46.5°F8.1°C 78% 4.5 mph NE7.2 kmh NE 10.0 mph16.1 kmh 29.34 in993.6 mb 0.02 in0.5 mm 0.00 in0.0 mm 0.03 in0.8 mm
05:25 PM 52.9°F11.6°C 46.6°F8.1°C 79% 3.4 mph NE5.5 kmh NE 10.0 mph16.1 kmh 29.34 in993.6 mb 0.02 in0.5 mm 0.00 in0.0 mm 0.03 in0.8 mm
05:30 PM 53.2°F11.8°C 46.5°F8.1°C 78% 2.4 mph NE3.9 kmh NE 7.0 mph11.3 kmh 29.35 in993.9 mb 0.02 in0.5 mm 0.00 in0.0 mm 0.03 in0.8 mm
05:35 PM 53.2°F11.8°C 46.5°F8.1°C 78% 2.3 mph NE3.7 kmh NE 9.0 mph14.5 kmh 29.35 in993.9 mb 0.03 in0.8 mm 0.12 in3.0 mm 0.04 in1.0 mm
05:40 PM 53.3°F11.8°C 46.6°F8.1°C 78% 3.0 mph NE4.8 kmh NE 12.0 mph19.3 kmh 29.36 in994.2 mb 0.02 in0.5 mm 0.00 in0.0 mm 0.04 in1.0 mm
05:45 PM 52.9°F11.6°C 46.6°F8.1°C 79% 4.2 mph NE6.8 kmh NE 13.0 mph20.9 kmh 29.36 in994.2 mb 0.03 in0.8 mm 0.12 in3.0 mm 0.05 in1.3 mm
05:50 PM 52.5°F11.4°C 46.5°F8.1°C 80% 5.4 mph NE8.7 kmh NE 13.0 mph20.9 kmh 29.36 in994.2 mb 0.04 in1.0 mm 0.12 in3.0 mm 0.06 in1.5 mm
05:55 PM 52.2°F11.2°C 46.5°F8.1°C 81% 6.1 mph NE9.8 kmh NE 11.0 mph17.7 kmh 29.36 in994.2 mb 0.04 in1.0 mm 0.00 in0.0 mm 0.06 in1.5 mm
06:00 PM 52.0°F11.1°C 46.7°F8.2°C 82% 6.2 mph NE10.0 kmh NE 11.0 mph17.7 kmh 29.36 in994.2 mb 0.05 in1.3 mm 0.01 in0.3 mm 0.06 in1.5 mm
06:05 PM 51.8°F11.0°C 46.8°F8.2°C 83% 6.0 mph NE9.7 kmh NE 11.0 mph17.7 kmh 29.36 in994.2 mb 0.04 in1.0 mm 0.00 in0.0 mm 0.06 in1.5 mm
06:10 PM 51.8°F11.0°C 46.8°F8.2°C 83% 6.0 mph NE9.7 kmh NE 12.0 mph19.3 kmh 29.36 in994.2 mb 0.05 in1.3 mm 0.12 in3.0 mm 0.07 in1.8 mm
06:15 PM 51.7°F10.9°C 47.0°F8.3°C 84% 5.5 mph NE8.9 kmh NE 12.0 mph19.3 kmh 29.36 in994.2 mb 0.05 in1.3 mm 0.00 in0.0 mm 0.08 in2.0 mm
06:20 PM 51.5°F10.8°C 46.8°F8.2°C 84% 4.4 mph NE7.1 kmh NE 9.0 mph14.5 kmh 29.37 in994.6 mb 0.06 in1.5 mm 0.12 in3.0 mm 0.09 in2.3 mm
06:25 PM 51.4°F10.8°C 47.0°F8.3°C 85% 3.5 mph NE5.6 kmh NE 8.0 mph12.9 kmh 29.37 in994.6 mb 0.06 in1.5 mm 0.00 in0.0 mm 0.09 in2.3 mm
06:30 PM 51.4°F10.8°C 47.0°F8.3°C 85% 3.1 mph NE5.0 kmh NE 6.0 mph9.7 kmh 29.38 in994.9 mb 0.07 in1.8 mm 0.12 in3.0 mm 0.10 in2.5 mm
06:35 PM 51.5°F10.8°C 47.1°F8.4°C 85% 2.9 mph NE4.7 kmh NE 7.0 mph11.3 kmh 29.38 in994.9 mb 0.06 in1.5 mm 0.00 in0.0 mm 0.10 in2.5 mm
06:40 PM 51.5°F10.8°C 47.1°F8.4°C 85% 2.9 mph NE4.7 kmh NE 7.0 mph11.3 kmh 29.38 in994.9 mb 0.07 in1.8 mm 0.12 in3.0 mm 0.11 in2.8 mm
06:45 PM 51.4°F10.8°C 47.0°F8.3°C 85% 3.0 mph NE4.8 kmh NE 8.0 mph12.9 kmh 29.38 in994.9 mb 0.07 in1.8 mm 0.00 in0.0 mm 0.12 in3.0 mm
06:50 PM 51.4°F10.8°C 47.0°F8.3°C 85% 3.5 mph NE5.6 kmh NE 10.0 mph16.1 kmh 29.39 in995.3 mb 0.07 in1.8 mm 0.00 in0.0 mm 0.13 in3.3 mm
06:55 PM 51.4°F10.8°C 47.0°F8.3°C 85% 5.1 mph NE8.2 kmh NE 11.0 mph17.7 kmh 29.39 in995.3 mb 0.08 in2.0 mm 0.12 in3.0 mm 0.13 in3.3 mm
07:00 PM 51.4°F10.8°C 47.0°F8.3°C 85% 6.5 mph NE10.5 kmh NE 11.0 mph17.7 kmh 29.39 in995.3 mb 0.08 in2.0 mm 0.00 in0.0 mm 0.14 in3.6 mm
07:05 PM 51.3°F10.7°C 46.9°F8.3°C 85% 6.0 mph NE9.7 kmh NE 11.0 mph17.7 kmh 29.39 in995.3 mb 0.09 in2.3 mm 0.12 in3.0 mm 0.16 in4.1 mm
07:10 PM 51.2°F10.7°C 47.2°F8.4°C 86% 4.0 mph NE6.4 kmh NE 5.0 mph8.0 kmh 29.39 in995.3 mb 0.09 in2.3 mm 0.00 in0.0 mm 0.17 in4.3 mm
07:15 PM 51.1°F10.6°C 47.1°F8.4°C 86% 2.2 mph NE3.5 kmh NE 4.0 mph6.4 kmh 29.39 in995.3 mb 0.10 in2.5 mm 0.12 in3.0 mm 0.18 in4.6 mm
07:20 PM 51.0°F10.6°C 47.3°F8.5°C 87% 1.2 mph NE1.9 kmh NE 2.0 mph3.2 kmh 29.39 in995.3 mb 0.11 in2.8 mm 0.12 in3.0 mm 0.20 in5.1 mm
07:25 PM 50.9°F10.5°C 47.5°F8.6°C 88% 0.4 mph 0.6 kmh -- 29.40 in995.6 mb 0.12 in3.0 mm 0.12 in3.0 mm 0.21 in5.3 mm
07:30 PM 50.8°F10.4°C 47.4°F8.6°C 88% Calm Calm -- 29.40 in995.6 mb 0.13 in3.3 mm 0.12 in3.0 mm 0.24 in6.1 mm
07:35 PM 50.7°F10.4°C 47.3°F8.5°C 88% Calm Calm -- 29.40 in995.6 mb 0.14 in3.6 mm 0.12 in3.0 mm 0.25 in6.4 mm
07:40 PM 50.7°F10.4°C 47.6°F8.7°C 89% Calm Calm 3.0 mph4.8 kmh 29.40 in995.6 mb 0.16 in4.1 mm 0.24 in6.1 mm 0.27 in6.9 mm
07:45 PM 50.7°F10.4°C 47.6°F8.7°C 89% 0.5 mph WSW0.8 kmh WSW 3.0 mph4.8 kmh 29.41 in995.9 mb 0.17 in4.3 mm 0.12 in3.0 mm 0.29 in7.4 mm
07:50 PM 50.7°F10.4°C 47.6°F8.7°C 89% 1.2 mph WSW1.9 kmh WSW 5.0 mph8.0 kmh 29.40 in995.6 mb 0.18 in4.6 mm 0.12 in3.0 mm 0.31 in7.9 mm
07:55 PM 50.8°F10.4°C 47.7°F8.7°C 89% 1.7 mph WSW2.7 kmh WSW 5.0 mph8.0 kmh 29.41 in995.9 mb 0.20 in5.1 mm 0.24 in6.1 mm 0.34 in8.6 mm
08:00 PM 50.7°F10.4°C 47.9°F8.8°C 90% 1.9 mph WSW3.1 kmh WSW 5.0 mph8.0 kmh 29.41 in995.9 mb 0.22 in5.6 mm 0.02 in0.5 mm 0.36 in9.1 mm
08:05 PM 50.7°F10.4°C 47.9°F8.8°C 90% 2.1 mph SW3.4 kmh SW 11.0 mph17.7 kmh 29.41 in995.9 mb 0.24 in6.1 mm 0.24 in6.1 mm 0.40 in10.2 mm
08:10 PM 50.6°F10.3°C 47.8°F8.8°C 90% 2.8 mph SW4.5 kmh SW 11.0 mph17.7 kmh 29.41 in995.9 mb 0.26 in6.6 mm 0.24 in6.1 mm 0.43 in10.9 mm
08:15 PM 50.5°F10.3°C 47.7°F8.7°C 90% 3.1 mph SW5.0 kmh SW 6.0 mph9.7 kmh 29.41 in995.9 mb 0.25 in6.4 mm 0.00 in0.0 mm 0.44 in11.2 mm
08:20 PM 50.5°F10.3°C 48.0°F8.9°C 91% 2.2 mph WSW3.5 kmh WSW 3.0 mph4.8 kmh 29.41 in995.9 mb 0.28 in7.1 mm 0.36 in9.1 mm 0.47 in11.9 mm
08:25 PM 50.4°F10.2°C 47.9°F8.8°C 91% 0.7 mph WSW1.1 kmh WSW 1.0 mph1.6 kmh 29.41 in995.9 mb 0.27 in6.9 mm 0.00 in0.0 mm 0.49 in12.4 mm
08:30 PM 50.4°F10.2°C 47.9°F8.8°C 91% Calm Calm -- 29.41 in995.9 mb 0.26 in6.6 mm 0.00 in0.0 mm 0.50 in12.7 mm
08:35 PM 50.3°F10.2°C 47.8°F8.8°C 91% Calm Calm 4.0 mph6.4 kmh 29.41 in995.9 mb 0.25 in6.4 mm 0.00 in0.0 mm 0.50 in12.7 mm
08:40 PM 50.4°F10.2°C 47.6°F8.7°C 90% 0.7 mph NE1.1 kmh NE 10.0 mph16.1 kmh 29.40 in995.6 mb 0.24 in6.1 mm 0.00 in0.0 mm 0.51 in13.0 mm
08:45 PM 50.5°F10.3°C 47.4°F8.6°C 89% 2.8 mph NE4.5 kmh NE 14.0 mph22.5 kmh 29.40 in995.6 mb 0.22 in5.6 mm 0.00 in0.0 mm 0.51 in13.0 mm
08:50 PM 50.7°F10.4°C 47.6°F8.7°C 89% 5.6 mph NE9.0 kmh NE 14.0 mph22.5 kmh 29.40 in995.6 mb 0.20 in5.1 mm 0.00 in0.0 mm 0.52 in13.2 mm
08:55 PM 50.7°F10.4°C 47.3°F8.5°C 88% 7.4 mph NE11.9 kmh NE 17.0 mph27.4 kmh 29.39 in995.3 mb 0.18 in4.6 mm 0.00 in0.0 mm 0.52 in13.2 mm
09:00 PM 50.9°F10.5°C 47.2°F8.4°C 87% 8.4 mph NE13.5 kmh NE 17.0 mph27.4 kmh 29.39 in995.3 mb 0.15 in3.8 mm 0.00 in0.0 mm 0.52 in13.2 mm
09:05 PM 51.0°F10.6°C 47.3°F8.5°C 87% 9.0 mph NE14.5 kmh NE 16.0 mph25.7 kmh 29.39 in995.3 mb 0.12 in3.0 mm 0.00 in0.0 mm 0.52 in13.2 mm
09:10 PM 51.2°F10.7°C 47.2°F8.4°C 86% 8.4 mph NE13.5 kmh NE 15.0 mph24.1 kmh 29.39 in995.3 mb 0.09 in2.3 mm 0.00 in0.0 mm 0.52 in13.2 mm
09:15 PM 51.1°F10.6°C 47.1°F8.4°C 86% 7.4 mph NE11.9 kmh NE 15.0 mph24.1 kmh 29.39 in995.3 mb 0.08 in2.0 mm 0.00 in0.0 mm 0.52 in13.2 mm
09:20 PM 51.1°F10.6°C 46.7°F8.2°C 85% 6.1 mph NE9.8 kmh NE 13.0 mph20.9 kmh 29.39 in995.3 mb 0.05 in1.3 mm 0.00 in0.0 mm 0.52 in13.2 mm
09:25 PM 51.1°F10.6°C 46.7°F8.2°C 85% 4.4 mph NE7.1 kmh NE 8.0 mph12.9 kmh 29.39 in995.3 mb 0.03 in0.8 mm 0.00 in0.0 mm 0.52 in13.2 mm
09:30 PM 50.9°F10.5°C 46.9°F8.3°C 86% 3.4 mph NE5.5 kmh NE 10.0 mph16.1 kmh 29.39 in995.3 mb 0.02 in0.5 mm 0.00 in0.0 mm 0.52 in13.2 mm
09:35 PM 50.9°F10.5°C 46.9°F8.3°C 86% 4.3 mph NE6.9 kmh NE 15.0 mph24.1 kmh 29.39 in995.3 mb 0.02 in0.5 mm 0.00 in0.0 mm 0.53 in13.5 mm
09:40 PM 50.9°F10.5°C 46.9°F8.3°C 86% 6.0 mph NE9.7 kmh NE 15.0 mph24.1 kmh 29.39 in995.3 mb 0.02 in0.5 mm 0.00 in0.0 mm 0.53 in13.5 mm
09:45 PM 50.9°F10.5°C 46.9°F8.3°C 86% 7.0 mph NE11.3 kmh NE 14.0 mph22.5 kmh 29.39 in995.3 mb 0.01 in0.3 mm 0.00 in0.0 mm 0.53 in13.5 mm
09:50 PM 50.9°F10.5°C 46.9°F8.3°C 86% 6.5 mph NE10.5 kmh NE 14.0 mph22.5 kmh 29.39 in995.3 mb 0.01 in0.3 mm 0.00 in0.0 mm 0.53 in13.5 mm
09:55 PM 50.8°F10.4°C 46.8°F8.2°C 86% 5.5 mph NE8.9 kmh NE 14.0 mph22.5 kmh 29.39 in995.3 mb 0.01 in0.3 mm 0.00 in0.0 mm 0.53 in13.5 mm
10:00 PM 50.8°F10.4°C 46.8°F8.2°C 86% 5.6 mph NE9.0 kmh NE 13.0 mph20.9 kmh 29.39 in995.3 mb 0.01 in0.3 mm 0.00 in0.0 mm 0.53 in13.5 mm
10:05 PM 50.7°F10.4°C 46.7°F8.2°C 86% 5.6 mph NE9.0 kmh NE 12.0 mph19.3 kmh 29.39 in995.3 mb 0.01 in0.3 mm 0.00 in0.0 mm 0.53 in13.5 mm
10:10 PM 50.6°F10.3°C 46.6°F8.1°C 86% 3.9 mph NE6.3 kmh NE 7.0 mph11.3 kmh 29.39 in995.3 mb 0.02 in0.5 mm 0.12 in3.0 mm 0.54 in13.7 mm
10:15 PM 50.5°F10.3°C 46.5°F8.1°C 86% 1.6 mph 2.6 kmh -- 29.39 in995.3 mb 0.02 in0.5 mm 0.00 in0.0 mm 0.54 in13.7 mm
10:20 PM 50.4°F10.2°C 46.4°F8.0°C 86% 0.2 mph 0.3 kmh -- 29.39 in995.3 mb 0.02 in0.5 mm 0.00 in0.0 mm 0.54 in13.7 mm
10:25 PM 50.4°F10.2°C 46.7°F8.2°C 87% 0.1 mph NE0.2 kmh NE 4.0 mph6.4 kmh 29.39 in995.3 mb 0.02 in0.5 mm 0.00 in0.0 mm 0.54 in13.7 mm
10:30 PM 50.4°F10.2°C 46.4°F8.0°C 86% 0.7 mph NE1.1 kmh NE 4.0 mph6.4 kmh 29.39 in995.3 mb 0.02 in0.5 mm 0.00 in0.0 mm 0.54 in13.7 mm
10:35 PM 50.4°F10.2°C 46.4°F8.0°C 86% 1.6 mph NE2.6 kmh NE 4.0 mph6.4 kmh 29.38 in994.9 mb 0.02 in0.5 mm 0.00 in0.0 mm 0.54 in13.7 mm
10:40 PM 50.4°F10.2°C 46.4°F8.0°C 86% 2.0 mph NE3.2 kmh NE 4.0 mph6.4 kmh 29.38 in994.9 mb 0.02 in0.5 mm 0.00 in0.0 mm 0.54 in13.7 mm
10:45 PM 50.3°F10.2°C 46.3°F7.9°C 86% 1.8 mph NE2.9 kmh NE 4.0 mph6.4 kmh 29.38 in994.9 mb 0.02 in0.5 mm 0.00 in0.0 mm 0.54 in13.7 mm
10:50 PM 50.3°F10.2°C 46.3°F7.9°C 86% 1.0 mph 1.6 kmh -- 29.38 in994.9 mb 0.02 in0.5 mm 0.00 in0.0 mm 0.54 in13.7 mm
10:55 PM 50.3°F10.2°C 46.6°F8.1°C 87% 0.2 mph 0.3 kmh -- 29.38 in994.9 mb 0.02 in0.5 mm 0.00 in0.0 mm 0.54 in13.7 mm
11:00 PM 50.2°F10.1°C 46.5°F8.1°C 87% Calm Calm -- 29.38 in994.9 mb 0.02 in0.5 mm 0.00 in0.0 mm 0.55 in14.0 mm
11:05 PM 50.2°F10.1°C 46.5°F8.1°C 87% Calm Calm -- 29.38 in994.9 mb 0.02 in0.5 mm 0.00 in0.0 mm 0.55 in14.0 mm
11:10 PM 50.2°F10.1°C 46.5°F8.1°C 87% Calm Calm -- 29.38 in994.9 mb 0.02 in0.5 mm 0.00 in0.0 mm 0.55 in14.0 mm
11:15 PM 50.2°F10.1°C 46.8°F8.2°C 88% Calm Calm -- 29.38 in994.9 mb 0.02 in0.5 mm 0.00 in0.0 mm 0.55 in14.0 mm
11:20 PM 50.2°F10.1°C 46.8°F8.2°C 88% Calm Calm -- 29.38 in994.9 mb 0.02 in0.5 mm 0.00 in0.0 mm 0.55 in14.0 mm
11:25 PM 50.2°F10.1°C 46.8°F8.2°C 88% Calm Calm -- 29.38 in994.9 mb 0.01 in0.3 mm 0.00 in0.0 mm 0.55 in14.0 mm
11:30 PM 50.3°F10.2°C 46.9°F8.3°C 88% Calm Calm 2.0 mph3.2 kmh 29.38 in994.9 mb 0.01 in0.3 mm 0.00 in0.0 mm 0.55 in14.0 mm
11:35 PM 50.3°F10.2°C 47.2°F8.4°C 89% Calm Calm 2.0 mph3.2 kmh 29.38 in994.9 mb 0.01 in0.3 mm 0.00 in0.0 mm 0.55 in14.0 mm
11:40 PM 50.2°F10.1°C 47.1°F8.4°C 89% Calm Calm 1.0 mph1.6 kmh 29.38 in994.9 mb 0.01 in0.3 mm 0.00 in0.0 mm 0.55 in14.0 mm
11:45 PM 50.1°F10.1°C 47.0°F8.3°C 89% Calm Calm -- 29.38 in994.9 mb 0.01 in0.3 mm 0.00 in0.0 mm 0.55 in14.0 mm
11:50 PM 50.1°F10.1°C 47.3°F8.5°C 90% Calm Calm -- 29.38 in994.9 mb 0.01 in0.3 mm 0.00 in0.0 mm 0.55 in14.0 mm
11:55 PM 50.0°F10.0°C 47.2°F8.4°C 90% Calm Calm -- 29.38 in994.9 mb 0.01 in0.3 mm 0.00 in0.0 mm 0.55 in14.0 mm